createdAt,value
2022-12-04T00:02:10.928Z,-0.76
2022-12-04T00:07:12.482Z,-0.93
2022-12-04T00:12:14.026Z,-0.77
2022-12-04T00:17:15.626Z,-0.70
2022-12-04T00:22:17.093Z,-0.81
2022-12-04T00:27:18.642Z,-0.90
2022-12-04T00:32:20.165Z,-0.89
2022-12-04T00:37:21.747Z,-1.15
2022-12-04T00:42:23.263Z,-1.24
2022-12-04T00:47:24.869Z,-0.99
2022-12-04T00:52:28.319Z,-0.77
2022-12-04T00:57:29.855Z,-0.92
2022-12-04T01:02:31.615Z,-0.93
2022-12-04T01:07:33.225Z,-0.94
2022-12-04T01:12:35.001Z,-0.83
2022-12-04T01:17:36.928Z,-0.98
2022-12-04T01:22:38.486Z,-0.79
2022-12-04T01:27:39.972Z,-0.68
2022-12-04T01:32:41.579Z,-0.74
2022-12-04T01:37:43.121Z,-0.75
2022-12-04T01:42:44.636Z,-1.05
2022-12-04T01:47:46.332Z,-0.90
2022-12-04T01:52:47.982Z,-0.68
2022-12-04T01:57:49.449Z,-0.85
2022-12-04T02:02:51.089Z,-0.90
2022-12-04T02:07:57.607Z,-0.99
2022-12-04T02:13:07.303Z,-0.97
2022-12-04T02:18:12.625Z,-1.13
2022-12-04T02:23:20.906Z,-1.61
2022-12-04T02:28:38.553Z,-1.56
2022-12-04T02:33:52.488Z,-1.51
2022-12-04T02:39:06.943Z,-1.75
2022-12-04T02:44:17.564Z,-1.98
2022-12-04T02:49:25.245Z,-2.01
2022-12-04T02:54:41.403Z,-1.69
2022-12-04T02:59:45.511Z,-0.65
2022-12-04T03:04:50.796Z,-0.82
2022-12-04T03:09:56.639Z,-0.94
2022-12-04T03:15:02.979Z,-0.57
2022-12-04T03:20:10.930Z,-0.57
2022-12-04T03:25:13.892Z,-0.56
2022-12-04T03:30:21.845Z,-0.71
2022-12-04T03:35:29.464Z,-0.85
2022-12-04T03:40:54.203Z,-0.83
2022-12-04T03:46:08.534Z,-0.69
2022-12-04T03:51:47.488Z,-0.85
2022-12-04T03:56:53.280Z,-0.78
2022-12-04T04:01:59.589Z,-0.74
2022-12-04T04:07:37.947Z,-0.55
2022-12-04T04:13:11.593Z,-0.55
2022-12-04T04:18:31.711Z,-0.76
2022-12-04T04:24:05.065Z,-0.59
2022-12-04T04:29:06.519Z,-0.68
2022-12-04T04:34:29.261Z,-0.89
2022-12-04T04:39:45.560Z,-0.82
2022-12-04T04:45:02.210Z,-0.70
2022-12-04T04:50:07.080Z,-0.70
2022-12-04T04:55:09.415Z,-0.59
2022-12-04T05:00:14.888Z,-0.64
2022-12-04T05:05:18.566Z,-0.55
2022-12-04T05:10:20.045Z,-0.56
2022-12-04T05:15:21.565Z,-0.69
2022-12-04T05:20:23.093Z,-0.74
2022-12-04T05:25:25.323Z,-0.84
2022-12-04T05:30:26.858Z,-0.86
2022-12-04T05:35:28.354Z,-0.98
2022-12-04T05:40:29.833Z,-0.78
2022-12-04T05:45:31.312Z,-0.86
2022-12-04T05:50:32.771Z,-0.80
2022-12-04T05:55:34.355Z,-1.10
2022-12-04T06:00:36.031Z,-0.76
2022-12-04T06:05:37.529Z,-0.98
2022-12-04T06:10:39.179Z,-1.24
2022-12-04T06:15:40.994Z,-1.34
2022-12-04T06:20:42.758Z,-1.31
2022-12-04T06:25:44.740Z,-1.32
2022-12-04T06:30:46.247Z,-1.44
2022-12-04T06:35:47.719Z,-1.73
2022-12-04T06:40:49.258Z,-1.83
2022-12-04T06:46:01.031Z,-1.63
2022-12-04T06:51:06.911Z,-1.54
2022-12-04T06:56:11.399Z,-2.16
2022-12-04T07:01:17.533Z,-2.23
2022-12-04T07:06:29.008Z,-2.17
2022-12-04T07:11:30.796Z,-1.77
2022-12-04T07:16:39.889Z,-1.98
2022-12-04T07:21:43.115Z,-2.13
2022-12-04T07:26:45.327Z,-2.33
2022-12-04T07:31:46.856Z,-1.63
2022-12-04T07:36:48.349Z,-0.79
2022-12-04T07:41:50.449Z,-0.90
2022-12-04T07:46:51.955Z,-0.77
2022-12-04T07:51:53.427Z,-0.98
2022-12-04T07:56:55.079Z,-1.01
2022-12-04T08:01:56.648Z,-1.37
2022-12-04T08:06:58.244Z,-1.41
2022-12-04T08:11:59.715Z,-1.35
2022-12-04T08:17:01.243Z,-1.07
2022-12-04T08:22:02.845Z,-1.09
2022-12-04T08:27:04.420Z,-1.32
2022-12-04T08:32:06.116Z,-1.13
2022-12-04T08:37:07.712Z,-1.05
2022-12-04T08:42:09.200Z,-1.10
2022-12-04T08:47:10.795Z,-1.18
2022-12-04T08:52:12.327Z,-1.09
2022-12-04T08:57:13.827Z,-1.18
2022-12-04T09:02:16.739Z,-0.99
2022-12-04T09:07:18.232Z,-0.89
2022-12-04T09:12:19.803Z,-0.97
2022-12-04T09:17:21.319Z,-0.96
2022-12-04T09:22:23.600Z,-0.95
2022-12-04T09:27:26.009Z,-0.81
2022-12-04T09:32:27.573Z,-0.72
2022-12-04T09:37:29.101Z,-0.81
2022-12-04T09:42:58.801Z,-0.87
2022-12-04T09:48:01.765Z,-0.85
2022-12-04T09:53:10.084Z,-1.16
2022-12-04T09:58:23.687Z,-1.29
2022-12-04T10:03:28.324Z,-1.39
2022-12-04T10:08:37.625Z,-1.49
2022-12-04T10:14:03.311Z,-1.67
2022-12-04T10:19:34.187Z,-1.68
2022-12-04T10:24:38.310Z,-2.02
2022-12-04T10:29:43.374Z,-2.11
2022-12-04T10:34:46.125Z,-2.14
2022-12-04T10:40:09.873Z,-2.00
2022-12-04T10:45:12.811Z,-2.05
2022-12-04T10:50:17.184Z,-2.05
2022-12-04T10:55:35.823Z,-2.33
2022-12-04T11:00:37.354Z,-2.27
2022-12-04T11:05:46.363Z,-1.48
2022-12-04T11:10:59.201Z,-0.57
2022-12-04T11:16:00.890Z,-0.45
2022-12-04T11:21:07.481Z,-0.51
2022-12-04T11:26:10.025Z,-0.58
2022-12-04T11:31:22.293Z,-0.70
2022-12-04T11:36:41.499Z,-0.90
2022-12-04T11:41:43.332Z,-0.67
2022-12-04T11:46:55.869Z,-0.64
2022-12-04T11:52:27.968Z,-0.66
2022-12-04T11:57:51.576Z,-0.62
2022-12-04T12:03:16.475Z,-0.54
2022-12-04T12:08:41.468Z,-0.39
2022-12-04T12:14:08.568Z,-0.35
2022-12-04T12:19:31.532Z,-0.43
2022-12-04T12:25:11.969Z,-0.45
2022-12-04T12:30:20.474Z,-0.42
2022-12-04T12:35:29.852Z,-0.30
2022-12-04T12:40:43.033Z,-0.26
2022-12-04T12:45:47.589Z,-0.22
2022-12-04T12:51:14.754Z,-0.05
2022-12-04T12:56:18.083Z,-0.43
2022-12-04T13:01:24.540Z,-0.94
2022-12-04T13:06:35.982Z,-0.93
2022-12-04T13:11:38.629Z,-1.00
2022-12-04T13:16:48.390Z,-1.05
2022-12-04T13:22:04.660Z,-1.03
2022-12-04T13:27:17.697Z,-0.74
2022-12-04T13:32:37.956Z,0.43
2022-12-04T13:38:17.966Z,0.22
2022-12-04T13:43:27.631Z,0.14
2022-12-04T13:48:40.188Z,0.27
2022-12-04T13:53:43.579Z,0.30
2022-12-04T13:58:45.174Z,0.44
2022-12-04T14:03:50.504Z,0.29
2022-12-04T14:08:58.404Z,0.36
2022-12-04T14:14:06.434Z,0.46
2022-12-04T14:19:30.046Z,0.46
2022-12-04T14:24:39.312Z,0.51
2022-12-04T14:29:52.120Z,0.73
2022-12-04T14:34:55.054Z,0.70
2022-12-04T14:39:58.533Z,0.70
2022-12-04T14:45:02.495Z,0.50
2022-12-04T14:50:20.641Z,0.62
2022-12-04T14:55:32.426Z,0.66
2022-12-04T15:00:34.292Z,0.72
2022-12-04T15:05:35.766Z,0.66
2022-12-04T15:10:57.356Z,0.76
2022-12-04T15:16:09.065Z,0.57
2022-12-04T15:21:11.619Z,0.60
2022-12-04T15:26:18.761Z,0.49
2022-12-04T15:31:47.052Z,0.60
2022-12-04T15:36:55.215Z,0.69
2022-12-04T15:42:24.676Z,0.62
2022-12-04T15:47:30.877Z,0.67
2022-12-04T15:52:32.502Z,0.47
2022-12-04T15:57:49.763Z,0.71
2022-12-04T16:02:51.623Z,0.69
2022-12-04T16:07:58.911Z,0.69
2022-12-04T16:13:03.944Z,0.85
2022-12-04T16:18:07.259Z,0.71
2022-12-04T16:23:09.559Z,0.68
2022-12-04T16:28:11.019Z,0.88
2022-12-04T16:33:15.731Z,0.81
2022-12-04T16:38:17.814Z,0.58
2022-12-04T16:43:19.479Z,0.59
2022-12-04T16:48:21.189Z,0.54
2022-12-04T16:53:22.889Z,0.55
2022-12-04T16:58:24.455Z,0.61
2022-12-04T17:03:31.072Z,0.52
2022-12-04T17:08:33.083Z,0.43
2022-12-04T17:13:34.551Z,0.41
2022-12-04T17:18:36.106Z,0.56
2022-12-04T17:23:37.666Z,0.64
2022-12-04T17:28:39.784Z,0.51
2022-12-04T17:33:43.476Z,0.31
2022-12-04T17:38:44.977Z,0.27
2022-12-04T17:43:46.949Z,0.25
2022-12-04T17:48:49.179Z,0.12
2022-12-04T17:53:51.413Z,0.35
2022-12-04T17:58:53.705Z,0.96
2022-12-04T18:04:01.795Z,1.52
2022-12-04T18:09:05.056Z,1.37
2022-12-04T18:14:14.049Z,1.42
2022-12-04T18:19:15.541Z,1.54
2022-12-04T18:24:17.900Z,1.75
2022-12-04T18:29:22.292Z,1.77
2022-12-04T18:34:23.771Z,1.90
2022-12-04T18:39:25.836Z,1.90
2022-12-04T18:44:27.462Z,1.79
2022-12-04T18:49:28.968Z,1.65
2022-12-04T18:54:30.433Z,1.90
2022-12-04T18:59:33.022Z,1.97
2022-12-04T19:04:34.647Z,1.94
2022-12-04T19:10:09.374Z,1.92
2022-12-04T19:14:57.679Z,1.86
2022-12-04T19:19:59.530Z,1.80
2022-12-04T19:25:01.668Z,1.85
2022-12-04T19:30:04.225Z,2.00
2022-12-04T19:35:05.967Z,2.01
2022-12-04T19:40:07.874Z,1.96
2022-12-04T19:45:09.717Z,2.11
2022-12-04T19:50:11.461Z,2.13
2022-12-04T19:55:13.211Z,2.10
2022-12-04T20:00:14.878Z,2.13
2022-12-04T20:05:16.393Z,2.10
2022-12-04T20:10:18.032Z,2.06
2022-12-04T20:15:19.632Z,2.27
2022-12-04T20:20:21.150Z,2.38
2022-12-04T20:25:22.720Z,2.46
2022-12-04T20:30:24.301Z,2.35
2022-12-04T20:35:25.851Z,2.40
2022-12-04T20:40:27.339Z,2.38
2022-12-04T20:45:30.152Z,2.23
2022-12-04T20:50:32.165Z,2.25
2022-12-04T20:55:33.607Z,2.29
2022-12-04T21:00:35.210Z,2.37
2022-12-04T21:05:36.708Z,2.50
2022-12-04T21:10:38.285Z,2.48
2022-12-04T21:15:58.269Z,2.48
2022-12-04T21:21:01.721Z,2.49
2022-12-04T21:26:03.518Z,2.50
2022-12-04T21:31:06.253Z,2.57
2022-12-04T21:36:09.725Z,2.47
2022-12-04T21:41:31.600Z,2.52
2022-12-04T21:46:33.206Z,2.62
2022-12-04T21:56:57.720Z,2.74
2022-12-04T22:02:01.168Z,2.82
2022-12-04T22:07:02.884Z,2.80
2022-12-04T22:12:20.264Z,2.72
2022-12-04T22:17:29.542Z,2.76
2022-12-04T22:22:31.087Z,2.84
2022-12-04T22:27:32.536Z,2.88
2022-12-04T22:32:34.316Z,3.06
2022-12-04T22:37:41.117Z,3.23
2022-12-04T22:42:45.592Z,3.02
2022-12-04T22:47:47.128Z,2.84
2022-12-04T22:52:48.674Z,2.82
2022-12-04T22:57:50.172Z,2.90
2022-12-04T23:02:51.816Z,2.86
2022-12-04T23:07:53.456Z,2.83
2022-12-04T23:12:54.968Z,2.95
2022-12-04T23:17:56.500Z,2.94
2022-12-04T23:22:59.300Z,3.08
2022-12-04T23:28:00.886Z,3.10
2022-12-04T23:33:02.422Z,3.07
2022-12-04T23:38:03.990Z,3.11
2022-12-04T23:43:05.540Z,3.14
2022-12-04T23:48:07.080Z,3.22
2022-12-04T23:53:08.549Z,3.17
2022-12-04T23:58:10.071Z,3.23
